Time;durP1;ratioP1;P1;durP2;ratioP2;P2;SDS_P1;SDS_P2;PMS_P1;PMS_P2;Temp;Humidity;BMP_temperature;BMP_pressure;BME280_temperature;BME280_humidity;BME280_pressure;Samples;Min_cycle;Max_cycle;Signal;HPM_P1;HPM_P2
2022/09/18 00:01:19;;;;;;;10.98;2.15;;;;;;;18.37;100.00;101396.28;4996418;28;20261;-53
2022/09/18 00:03:46;;;;;;;16.73;1.93;;;;;;;17.75;100.00;101400.09;4999422;28;20030;-54
2022/09/18 00:06:16;;;;;;;17.20;2.30;;;;;;;18.05;100.00;101394.69;4991746;28;20307;-49
2022/09/18 00:08:45;;;;;;;8.73;1.57;;;;;;;17.73;100.00;101402.22;4993697;28;20102;-53
2022/09/18 00:11:13;;;;;;;10.20;2.03;;;;;;;18.39;100.00;101404.97;4998713;28;20273;-51
2022/09/18 00:13:40;;;;;;;10.43;2.20;;;;;;;18.27;100.00;101398.75;5005337;28;20285;-54
2022/09/18 00:16:08;;;;;;;11.23;2.63;;;;;;;18.47;100.00;101406.53;5015527;28;20292;-49
2022/09/18 00:18:35;;;;;;;15.47;2.13;;;;;;;18.31;100.00;101402.63;5003241;28;20045;-51
2022/09/18 00:21:03;;;;;;;17.25;2.83;;;;;;;18.60;100.00;101402.75;5018331;28;20277;-49
2022/09/18 00:23:29;;;;;;;13.57;2.60;;;;;;;18.30;100.00;101395.56;4991977;28;20027;-52
2022/09/18 00:25:55;;;;;;;8.05;2.03;;;;;;;18.40;100.00;101395.78;5005397;28;20279;-52
2022/09/18 00:28:21;;;;;;;11.40;2.35;;;;;;;17.84;100.00;101384.38;4993660;28;20050;-50
2022/09/18 00:30:47;;;;;;;12.48;2.28;;;;;;;18.02;100.00;101383.53;4997228;28;20062;-53
2022/09/18 00:33:12;;;;;;;15.33;2.20;;;;;;;17.76;100.00;101393.63;5015869;28;20040;-52
2022/09/18 00:35:42;;;;;;;21.98;2.20;;;;;;;17.67;100.00;101387.75;5004243;28;20038;-53
2022/09/18 00:38:09;;;;;;;15.80;2.50;;;;;;;17.90;100.00;101386.97;5006720;28;20037;-52
2022/09/18 00:40:37;;;;;;;15.87;2.13;;;;;;;17.76;100.00;101401.75;4991996;28;20277;-49
2022/09/18 00:43:25;;;;;;;16.43;3.13;;;;;;;18.05;100.00;101400.09;5004455;28;20973;-48
2022/09/18 00:46:20;;;;;;;10.90;2.60;;;;;;;18.54;100.00;101398.28;5003360;28;20272;-52
2022/09/18 00:48:52;;;;;;;13.43;2.33;;;;;;;18.34;100.00;101396.75;4999810;28;20047;-47
2022/09/18 00:51:18;;;;;;;13.67;2.13;;;;;;;18.10;100.00;101404.00;4998323;28;20269;-53
2022/09/18 00:53:53;;;;;;;17.38;2.13;;;;;;;18.51;100.00;101396.06;5004902;28;20356;-51
2022/09/18 00:56:19;;;;;;;14.70;2.40;;;;;;;18.20;100.00;101394.25;4992363;28;20031;-52
2022/09/18 00:58:45;;;;;;;15.40;1.70;;;;;;;18.52;100.00;101398.50;5004445;28;20273;-54
2022/09/18 01:01:11;;;;;;;15.63;2.40;;;;;;;18.89;100.00;101400.13;5003685;28;20039;-50
2022/09/18 01:03:37;;;;;;;15.60;2.25;;;;;;;18.79;100.00;101398.03;4997742;28;20031;-52
2022/09/18 01:06:06;;;;;;;7.70;1.73;;;;;;;18.17;100.00;101402.03;5020418;28;20032;-50
2022/09/18 01:08:59;;;;;;;8.07;2.23;;;;;;;18.34;100.00;101397.59;4998575;28;20038;-50
2022/09/18 01:11:35;;;;;;;14.47;2.37;;;;;;;18.25;100.00;101407.09;4996463;28;20289;-50
2022/09/18 01:14:20;;;;;;;15.88;2.00;;;;;;;17.80;100.00;101402.97;5021621;28;20296;-54
2022/09/18 01:17:04;;;;;;;10.33;1.93;;;;;;;18.05;100.00;101410.13;5008046;28;20039;-54
2022/09/18 01:20:00;;;;;;;18.23;2.00;;;;;;;18.25;100.00;101398.16;5007543;28;20276;-51
2022/09/18 01:22:44;;;;;;;5.77;2.17;;;;;;;17.97;100.00;101391.47;5014596;28;20270;-50
2022/09/18 01:25:41;;;;;;;16.07;4.43;;;;;;;18.05;100.00;101389.28;5002153;28;20285;-53
2022/09/18 01:28:23;;;;;;;13.02;3.15;;;;;;;17.79;100.00;101395.91;5012515;28;20280;-53
2022/09/18 01:30:56;;;;;;;14.57;2.80;;;;;;;18.01;100.00;101393.50;5012972;28;20046;-52
2022/09/18 01:33:47;;;;;;;17.23;2.90;;;;;;;18.53;100.00;101393.94;5003653;28;20280;-53
2022/09/18 01:36:16;;;;;;;9.20;2.77;;;;;;;18.16;100.00;101384.94;5003497;28;21080;-52
2022/09/18 01:39:21;;;;;;;14.47;2.43;;;;;;;18.00;100.00;101385.59;5008061;28;20284;-54
2022/09/18 01:41:50;;;;;;;14.97;2.23;;;;;;;18.25;100.00;101396.25;4995899;28;20344;-50
2022/09/18 01:44:27;;;;;;;12.00;2.60;;;;;;;18.31;100.00;101402.63;5002692;28;20257;-52
2022/09/18 01:46:55;;;;;;;17.97;2.57;;;;;;;18.12;100.00;101397.31;5001705;28;20276;-53
2022/09/18 01:49:28;;;;;;;19.10;2.33;;;;;;;17.76;100.00;101401.75;5003496;28;20288;-52
2022/09/18 01:52:01;;;;;;;10.63;1.90;;;;;;;18.39;100.00;101396.06;5000567;28;20305;-52
2022/09/18 01:54:32;;;;;;;10.43;2.33;;;;;;;18.06;100.00;101398.22;5017484;28;20287;-56
2022/09/18 01:57:11;;;;;;;14.40;2.37;;;;;;;17.65;100.00;101394.44;5001715;28;20285;-54
2022/09/18 01:59:45;;;;;;;7.80;1.80;;;;;;;17.83;100.00;101397.09;5016325;28;20265;-52
2022/09/18 02:02:22;;;;;;;12.50;2.67;;;;;;;17.73;100.00;101386.81;5011483;28;20280;-55
2022/09/18 02:04:55;;;;;;;11.30;3.03;;;;;;;17.44;100.00;101388.47;5017264;28;21196;-53
2022/09/18 02:07:43;;;;;;;12.30;2.40;;;;;;;17.80;100.00;101378.63;5003759;28;20291;-52
2022/09/18 02:10:08;;;;;;;15.73;2.97;;;;;;;18.42;100.00;101380.13;4994544;28;20312;-55
2022/09/18 02:12:39;;;;;;;10.10;2.60;;;;;;;17.80;100.00;101378.63;4998039;28;20031;-53
2022/09/18 02:15:09;;;;;;;18.17;2.90;;;;;;;18.11;100.00;101379.41;5002170;28;20272;-54
2022/09/18 02:18:17;;;;;;;14.17;2.87;;;;;;;17.90;100.00;101381.56;4995720;28;20288;-53
2022/09/18 02:20:44;;;;;;;11.57;3.33;;;;;;;18.15;100.00;101379.78;5013669;28;20322;-54
2022/09/18 02:23:10;;;;;;;;;;;;;;;17.97;100.00;101375.22;4996969;28;20272;-53
2022/09/18 02:25:52;;;;;;;16.00;2.97;;;;;;;18.15;100.00;101372.47;5002927;28;19921;-54
2022/09/18 02:28:21;;;;;;;16.83;2.80;;;;;;;17.80;100.00;101380.47;5007471;28;20265;-56
2022/09/18 02:30:46;;;;;;;10.10;2.00;;;;;;;17.96;100.00;101373.56;5003507;28;20354;-54
2022/09/18 02:33:29;;;;;;;11.38;2.38;;;;;;;18.47;100.00;101368.59;5003881;28;20290;-55
2022/09/18 02:36:36;;;;;;;10.47;1.37;;;;;;;17.43;100.00;101371.44;4998992;28;20056;-53
2022/09/18 02:39:21;;;;;;;12.70;2.40;;;;;;;17.96;100.00;101373.56;4999284;28;20264;-54
2022/09/18 02:42:05;;;;;;;12.57;2.47;;;;;;;17.98;100.00;101360.63;4998805;28;20039;-51
2022/09/18 02:44:48;;;;;;;10.97;1.83;;;;;;;18.24;100.00;101377.56;4984089;28;20444;-53
2022/09/18 02:47:23;;;;;;;7.43;1.83;;;;;;;18.04;100.00;101365.97;4986119;28;20276;-52
2022/09/18 02:49:58;;;;;;;11.90;2.10;;;;;;;18.37;100.00;101369.19;4974641;28;20279;-51
2022/09/18 02:53:05;;;;;;;14.20;1.73;;;;;;;18.59;100.00;101363.19;4991126;28;20284;-49
2022/09/18 02:55:46;;;;;;;13.43;1.90;;;;;;;18.44;100.00;101367.19;4954032;28;20281;-54
2022/09/18 02:58:29;;;;;;;16.20;2.33;;;;;;;18.25;100.00;101366.47;5006083;28;20288;-52
2022/09/18 03:01:01;;;;;;;20.80;2.83;;;;;;;18.66;100.00;101366.59;4994930;28;20272;-52
2022/09/18 03:03:31;;;;;;;17.37;2.20;;;;;;;18.12;100.00;101362.13;4991862;28;20268;-52
2022/09/18 03:06:00;;;;;;;14.47;4.40;;;;;;;18.52;100.00;101354.38;4983544;28;20273;-51
2022/09/18 03:08:28;;;;;;;15.63;3.00;;;;;;;18.52;100.00;101351.66;4999481;28;20273;-54
2022/09/18 03:10:53;;;;;;;6.37;1.80;;;;;;;18.34;100.00;101356.97;5007847;28;20310;-51
2022/09/18 03:13:19;;;;;;;14.82;1.98;;;;;;;18.56;100.00;101348.22;5005231;28;20398;-51
2022/09/18 03:15:45;;;;;;;;;;;;;;;18.29;100.00;101345.19;4991768;28;20054;-52
2022/09/18 03:18:12;;;;;;;17.33;2.33;;;;;;;18.28;100.00;101343.53;4999225;28;19914;-54
2022/09/18 03:20:41;;;;;;;12.50;2.33;;;;;;;18.26;100.00;101348.38;5014837;28;20030;-53
2022/09/18 03:23:08;;;;;;;11.17;2.90;;;;;;;18.06;100.00;101346.81;4993329;28;20375;-52
2022/09/18 03:25:34;;;;;;;13.32;3.17;;;;;;;18.04;100.00;101338.91;5015848;28;20273;-52
2022/09/18 03:28:00;;;;;;;17.87;2.83;;;;;;;17.83;100.00;101342.97;4991222;28;20065;-51
2022/09/18 03:30:34;;;;;;;10.50;2.10;;;;;;;17.85;100.00;101340.03;4975934;28;20272;-52
2022/09/18 03:33:00;;;;;;;14.43;3.22;;;;;;;18.10;100.00;101329.03;4990508;28;20337;-51
2022/09/18 03:35:28;;;;;;;18.03;2.93;;;;;;;18.13;100.00;101338.59;5008536;28;20038;-50
2022/09/18 03:37:54;;;;;;;17.20;1.63;;;;;;;17.86;100.00;101339.81;4982685;28;20347;-52
2022/09/18 03:40:23;;;;;;;9.83;1.53;;;;;;;17.95;100.00;101339.47;5004165;28;20276;-54
2022/09/18 03:42:49;;;;;;;9.70;1.75;;;;;;;17.86;100.00;101336.25;4998575;28;20285;-53
2022/09/18 03:45:15;;;;;;;13.35;2.45;;;;;;;18.28;100.00;101340.84;5001583;28;20051;-52
2022/09/18 03:47:41;;;;;;;10.80;2.30;;;;;;;18.30;100.00;101352.25;5002454;28;20055;-54
2022/09/18 03:50:09;;;;;;;12.00;2.00;;;;;;;17.35;100.00;101352.81;4989325;28;20060;-51
2022/09/18 03:52:37;;;;;;;10.83;1.70;;;;;;;17.58;100.00;101346.69;5029127;28;20274;-50
2022/09/18 03:55:15;;;;;;;13.43;2.00;;;;;;;17.77;100.00;101341.22;4991132;28;20275;-53
2022/09/18 03:58:03;;;;;;;12.03;1.60;;;;;;;17.47;100.00;101333.94;4991097;28;20783;-51
2022/09/18 04:00:41;;;;;;;14.43;3.27;;;;;;;18.11;100.00;101321.75;4991665;28;20297;-54
2022/09/18 04:03:15;;;;;;;11.63;1.73;;;;;;;17.63;100.00;101314.34;4986661;28;20257;-51
2022/09/18 04:06:01;;;;;;;13.20;1.63;;;;;;;17.82;100.00;101316.97;5010264;28;20275;-54
2022/09/18 04:09:02;;;;;;;7.90;1.40;;;;;;;18.27;100.00;101325.66;4992368;28;20284;-54
2022/09/18 04:11:36;;;;;;;9.57;1.50;;;;;;;17.78;100.00;101313.09;4997112;28;20265;-51
2022/09/18 04:14:03;;;;;;;13.50;1.83;;;;;;;17.97;100.00;101313.00;5007119;28;20284;-51
2022/09/18 04:16:30;;;;;;;9.40;1.63;;;;;;;18.28;100.00;101314.56;4988577;28;20284;-51
2022/09/18 04:18:56;;;;;;;5.57;1.48;;;;;;;18.15;100.00;101312.94;4986300;28;20265;-51
2022/09/18 04:21:21;;;;;;;13.03;2.03;;;;;;;18.09;100.00;101327.41;4978826;28;20058;-51
2022/09/18 04:23:49;;;;;;;12.00;2.17;;;;;;;18.02;100.00;101321.28;4988211;28;20022;-54
2022/09/18 04:26:18;;;;;;;10.57;1.70;;;;;;;18.18;100.00;101323.28;5006989;28;20289;-51
2022/09/18 04:28:51;;;;;;;16.73;1.40;;;;;;;17.40;100.00;101319.69;4999411;28;20299;-55
2022/09/18 04:31:17;;;;;;;39.67;3.15;;;;;;;17.75;100.00;101322.50;4989855;28;20261;-51
2022/09/18 04:33:44;;;;;;;12.13;1.10;;;;;;;17.83;100.00;101326.75;4987814;28;20126;-51
2022/09/18 04:36:09;;;;;;;14.43;1.60;;;;;;;17.91;100.00;101328.28;4991908;28;20295;-54
2022/09/18 04:38:36;;;;;;;6.65;1.17;;;;;;;17.73;100.00;101331.88;4993795;28;20098;-54
2022/09/18 04:41:02;;;;;;;17.23;1.90;;;;;;;17.83;100.00;101329.44;5013574;28;20106;-53
2022/09/18 04:43:28;;;;;;;10.77;1.25;;;;;;;17.82;100.00;101330.50;5013394;28;20269;-55
2022/09/18 04:45:54;;;;;;;15.48;1.58;;;;;;;17.64;100.00;101323.28;4995247;28;20042;-53
2022/09/18 04:48:20;;;;;;;12.45;1.58;;;;;;;17.89;100.00;101325.81;5001655;28;20046;-53
2022/09/18 04:50:47;;;;;;;9.97;1.63;;;;;;;18.20;100.00;101329.28;4984940;28;20039;-53
2022/09/18 04:53:16;;;;;;;7.17;1.60;;;;;;;18.38;100.00;101326.72;4962575;28;20288;-54
2022/09/18 04:55:44;;;;;;;6.70;1.37;;;;;;;18.35;100.00;101322.56;4999182;28;20772;-54
2022/09/18 04:58:11;;;;;;;6.00;1.33;;;;;;;17.88;100.00;101320.66;5033152;28;20280;-51
2022/09/18 05:00:37;;;;;;;9.00;1.73;;;;;;;17.83;100.00;101315.94;5015664;28;20280;-53
2022/09/18 05:03:07;;;;;;;;;;;;;;;17.97;100.00;101316.53;4997548;28;20336;-55
2022/09/18 05:05:35;;;;;;;9.77;1.33;;;;;;;17.69;100.00;101312.59;4975532;28;19921;-54
2022/09/18 05:08:01;;;;;;;10.60;1.63;;;;;;;18.11;100.00;101322.56;4985335;28;20280;-53
2022/09/18 05:10:28;;;;;;;10.60;1.73;;;;;;;18.46;100.00;101321.75;5003293;28;20039;-54
2022/09/18 05:12:54;;;;;;;16.35;1.73;;;;;;;18.45;100.00;101336.38;5021875;28;20281;-54
2022/09/18 05:15:20;;;;;;;10.60;1.70;;;;;;;18.56;100.00;101356.34;4977844;28;20031;-52
2022/09/18 05:17:48;;;;;;;10.93;1.90;;;;;;;18.75;100.00;101348.94;4980647;28;20027;-53
2022/09/18 05:20:14;;;;;;;28.98;2.55;;;;;;;18.84;100.00;101356.69;4969136;28;20288;-53
2022/09/18 05:22:45;;;;;;;20.80;1.80;;;;;;;18.65;100.00;101337.03;5001807;28;20030;-52
2022/09/18 05:25:13;;;;;;;16.50;2.17;;;;;;;18.60;100.00;101335.03;5022045;28;20298;-51
2022/09/18 05:27:39;;;;;;;5.13;1.45;;;;;;;18.71;100.00;101330.66;4987732;28;20302;-50
2022/09/18 05:30:09;;;;;;;22.17;2.90;;;;;;;18.57;100.00;101330.94;4996177;28;20031;-50
2022/09/18 05:32:59;;;;;;;12.33;1.87;;;;;;;18.28;100.00;101332.72;5009381;28;20291;-53
2022/09/18 05:35:26;;;;;;;11.73;2.20;;;;;;;17.92;100.00;101322.63;4984387;28;20304;-51
2022/09/18 05:37:52;;;;;;;12.33;2.27;;;;;;;17.97;100.00;101321.94;5000056;28;20311;-51
2022/09/18 05:40:19;;;;;;;8.27;1.70;;;;;;;17.89;100.00;101314.19;5012712;28;20332;-50
2022/09/18 05:42:46;;;;;;;11.20;2.20;;;;;;;18.14;100.00;101319.41;4998494;28;20268;-50
2022/09/18 05:45:15;;;;;;;9.67;1.70;;;;;;;18.14;100.00;101324.00;5013761;28;20265;-52
2022/09/18 05:47:41;;;;;;;8.70;1.90;;;;;;;18.11;100.00;101328.00;4984324;28;20312;-55
2022/09/18 05:50:09;;;;;;;7.53;1.90;;;;;;;18.01;100.00;101322.31;4980646;28;20261;-50
2022/09/18 05:52:35;;;;;;;9.17;2.13;;;;;;;18.31;100.00;101316.81;4978667;28;20284;-52
2022/09/18 05:55:01;;;;;;;12.77;1.30;;;;;;;18.96;100.00;101327.69;4972881;28;20266;-55
2022/09/18 05:57:27;;;;;;;5.80;1.33;;;;;;;19.19;100.00;101326.00;4980005;28;20286;-52
2022/09/18 05:59:52;;;;;;;3.97;1.00;;;;;;;18.48;100.00;101316.94;4972769;28;20061;-49
2022/09/18 06:02:18;;;;;;;5.32;1.38;;;;;;;19.28;100.00;101318.28;4980030;28;20074;-50
2022/09/18 06:05:09;;;;;;;9.47;1.73;;;;;;;19.76;100.00;101318.84;4979578;28;20053;-53
2022/09/18 06:07:35;;;;;;;;;;;;;;;19.56;100.00;101322.03;4972617;28;20337;-51
2022/09/18 06:10:02;;;;;;;4.83;0.90;;;;;;;19.37;100.00;101321.41;4972512;28;19925;-51
2022/09/18 06:12:28;;;;;;;7.97;1.63;;;;;;;19.20;100.00;101316.78;4974335;28;20118;-51
2022/09/18 06:14:54;;;;;;;3.20;0.88;;;;;;;18.97;100.00;101310.34;5001013;28;20273;-54
2022/09/18 06:17:20;;;;;;;10.98;1.30;;;;;;;19.19;100.00;101318.66;4979827;28;20058;-55
2022/09/18 06:19:52;;;;;;;8.97;1.00;;;;;;;19.26;100.00;101318.53;4980906;28;20031;-53
2022/09/18 06:22:18;;;;;;;10.27;1.83;;;;;;;19.66;100.00;101324.13;4972965;28;20300;-54
2022/09/18 06:24:43;;;;;;;8.65;2.25;;;;;;;20.14;100.00;101314.63;4978343;28;20035;-51
2022/09/18 06:27:18;;;;;;;7.00;1.30;;;;;;;20.37;100.00;101310.06;4972833;28;20034;-50
2022/09/18 06:29:44;;;;;;;5.70;1.23;;;;;;;20.37;100.00;101318.22;4979780;28;20285;-55
2022/09/18 06:32:13;;;;;;;5.87;1.53;;;;;;;20.40;100.00;101316.88;4977269;28;20033;-51
2022/09/18 06:34:39;;;;;;;4.05;1.08;;;;;;;19.35;100.00;101317.06;4976791;28;20301;-54
2022/09/18 06:37:10;;;;;;;4.73;0.87;;;;;;;19.78;100.00;101312.13;4977335;28;20045;-54
2022/09/18 06:39:42;;;;;;;7.10;1.70;;;;;;;19.66;100.00;101307.84;4981305;28;20281;-54
2022/09/18 06:42:15;;;;;;;9.80;1.37;;;;;;;18.77;100.00;101311.59;4969557;28;20284;-52
2022/09/18 06:44:46;;;;;;;8.57;1.47;;;;;;;19.20;100.00;101322.22;4977380;28;20301;-53
2022/09/18 06:47:13;;;;;;;8.73;1.60;;;;;;;19.08;100.00;101314.13;4986931;28;20266;-57
2022/09/18 06:49:43;;;;;;;4.77;0.83;;;;;;;19.11;100.00;101312.81;5015052;28;20265;-55
2022/09/18 06:52:08;;;;;;;9.00;1.30;;;;;;;19.47;100.00;101321.63;4999269;28;20289;-54
2022/09/18 06:54:35;;;;;;;10.37;1.87;;;;;;;20.10;100.00;101313.47;5005120;28;20046;-54
2022/09/18 06:57:01;;;;;;;4.97;1.13;;;;;;;19.96;100.00;101312.16;4977992;28;20583;-52
2022/09/18 06:59:28;;;;;;;9.47;1.33;;;;;;;20.10;100.00;101316.19;4994964;28;20494;-56
2022/09/18 07:01:53;;;;;;;3.57;1.10;;;;;;;19.70;100.00;101319.84;5012790;28;20481;-56
2022/09/18 07:04:33;;;;;;;7.23;1.53;;;;;;;19.80;100.00;101319.19;5000596;28;20032;-53
2022/09/18 07:06:59;;;;;;;3.33;1.20;;;;;;;20.19;100.00;101311.16;5016730;28;20277;-52
2022/09/18 07:09:26;;;;;;;7.10;1.00;;;;;;;19.49;100.00;101314.91;5009673;28;20274;-54
2022/09/18 07:11:52;;;;;;;5.10;1.10;;;;;;;19.26;100.00;101312.25;4995961;28;20293;-51
2022/09/18 07:14:21;;;;;;;7.27;1.20;;;;;;;19.98;100.00;101299.16;4991998;28;20102;-52
2022/09/18 07:16:48;;;;;;;5.87;1.63;;;;;;;19.92;100.00;101303.66;5015682;28;20315;-53
2022/09/18 07:19:14;;;;;;;16.33;5.50;;;;;;;20.95;100.00;101307.00;4994276;28;20285;-54
2022/09/18 07:21:40;;;;;;;8.57;2.13;;;;;;;21.03;100.00;101303.03;4994435;28;20073;-53
2022/09/18 07:24:07;;;;;;;8.80;1.37;;;;;;;21.12;100.00;101306.09;5000807;28;20030;-55
2022/09/18 07:26:33;;;;;;;6.05;1.60;;;;;;;21.52;100.00;101320.38;5007485;28;20273;-55
2022/09/18 07:29:00;;;;;;;10.00;4.07;;;;;;;20.37;100.00;101306.50;5036404;28;20034;-56
2022/09/18 07:31:34;;;;;;;10.97;1.20;;;;;;;20.37;100.00;101309.22;4995269;28;20272;-54
2022/09/18 07:34:03;;;;;;;4.57;1.67;;;;;;;20.71;100.00;101304.50;5010199;28;20313;-54
2022/09/18 07:36:29;;;;;;;4.47;0.90;;;;;;;20.35;100.00;101295.91;5007688;28;20278;-54
2022/09/18 07:38:54;;;;;;;6.32;1.20;;;;;;;20.37;100.00;101304.63;4992544;28;20039;-51
2022/09/18 07:41:23;;;;;;;5.47;1.50;;;;;;;20.04;100.00;101299.00;4995443;28;20021;-53
2022/09/18 07:43:49;;;;;;;6.13;1.40;;;;;;;20.60;100.00;101300.03;4989899;28;20299;-51
2022/09/18 07:46:15;;;;;;;8.50;1.67;;;;;;;19.65;100.00;101295.34;4988488;28;20032;-51
2022/09/18 07:48:44;;;;;;;5.50;1.37;;;;;;;20.29;100.00;101296.88;4981172;28;20282;-56
2022/09/18 07:51:15;;;;;;;8.23;2.40;;;;;;;20.48;100.00;101295.53;4975525;28;20296;-53
2022/09/18 07:53:43;;;;;;;3.10;1.10;;;;;;;20.10;100.00;101294.47;4969743;28;20293;-53
2022/09/18 07:56:11;;;;;;;9.87;1.97;;;;;;;20.23;100.00;101301.44;4957883;28;21874;-53
2022/09/18 07:58:37;;;;;;;;;;;;;;;19.90;100.00;101301.19;4984027;28;20305;-50
2022/09/18 08:01:05;;;;;;;14.23;2.45;;;;;;;20.24;100.00;101292.22;4984684;28;19922;-52
2022/09/18 08:03:37;;;;;;;9.03;1.37;;;;;;;19.90;100.00;101295.75;4971165;28;20035;-54
2022/09/18 08:06:09;;;;;;;8.97;1.60;;;;;;;20.52;100.00;101295.03;4966834;28;20282;-52
2022/09/18 08:08:35;;;;;;;7.63;0.93;;;;;;;20.56;100.00;101291.56;4973624;28;20273;-52
2022/09/18 08:11:21;;;;;;;4.93;1.30;;;;;;;20.22;100.00;101288.09;4972448;28;20095;-55
2022/09/18 08:14:07;;;;;;;7.97;1.53;;;;;;;21.23;100.00;101293.44;4978660;28;20305;-53
2022/09/18 08:16:38;;;;;;;8.40;1.67;;;;;;;21.23;100.00;101291.56;4975715;28;20286;-51
2022/09/18 08:19:27;;;;;;;13.70;2.97;;;;;;;21.67;100.00;101300.66;4965877;28;20311;-53
2022/09/18 08:22:19;;;;;;;25.20;8.10;;;;;;;22.39;100.00;101298.47;4977770;28;20333;-53
2022/09/18 08:24:49;;;;;;;12.57;3.10;;;;;;;22.19;100.00;101308.16;4973322;28;20292;-53
2022/09/18 08:27:15;;;;;;;12.73;3.35;;;;;;;22.78;100.00;101310.94;4971825;28;20274;-51
2022/09/18 08:29:42;;;;;;;6.40;1.80;;;;;;;22.17;100.00;101296.72;4977870;28;20047;-54
2022/09/18 08:32:09;;;;;;;10.43;3.43;;;;;;;22.87;100.00;101308.53;4958846;28;20270;-54
2022/09/18 08:34:35;;;;;;;;;;;;;;;21.99;100.00;101314.25;4984467;28;20019;-52
2022/09/18 08:37:01;;;;;;;5.67;1.40;;;;;;;21.35;100.00;101311.25;4993846;28;19918;-53
2022/09/18 08:39:45;;;;;;;6.20;1.37;;;;;;;22.34;100.00;101314.75;4994202;28;20041;-56
2022/09/18 08:43:14;;;;;;;6.70;1.60;;;;;;;21.26;100.00;101311.97;4986623;28;20052;-55
2022/09/18 08:45:59;;;;;;;8.63;1.97;;;;;;;21.40;100.00;101306.94;4965485;28;20329;-52
2022/09/18 08:48:37;;;;;;;8.37;1.20;;;;;;;21.76;100.00;101304.56;4983636;28;20052;-55
2022/09/18 08:51:15;;;;;;;9.40;1.77;;;;;;;22.49;100.00;101314.09;4993067;28;20031;-54
2022/09/18 08:53:47;;;;;;;11.43;1.53;;;;;;;22.12;100.00;101307.53;4988370;28;20044;-55
2022/09/18 08:56:33;;;;;;;11.27;2.57;;;;;;;21.65;100.00;101313.72;4981146;28;20273;-56
2022/09/18 08:59:32;;;;;;;16.33;2.67;;;;;;;21.88;100.00;101328.91;4984906;28;20260;-54
2022/09/18 09:02:25;;;;;;;196.80;10.70;;;;;;;21.46;100.00;101317.63;4974565;28;20369;-55
2022/09/18 09:04:57;;;;;;;19.53;4.27;;;;;;;21.72;100.00;101312.44;4969181;29;20343;-56
2022/09/18 09:07:43;;;;;;;9.43;1.77;;;;;;;21.43;100.00;101307.25;4975627;28;20285;-54
2022/09/18 09:10:15;;;;;;;11.63;1.50;;;;;;;21.28;100.00;101316.09;4980327;28;20284;-54
2022/09/18 09:12:57;;;;;;;8.63;1.80;;;;;;;21.51;100.00;101313.28;4979185;28;20284;-53
2022/09/18 09:15:36;;;;;;;9.93;2.13;;;;;;;21.57;100.00;101310.38;4973194;28;20296;-53
2022/09/18 09:18:50;;;;;;;11.13;1.87;;;;;;;21.34;100.00;101304.16;4977572;28;20620;-56
2022/09/18 09:21:28;;;;;;;13.33;2.13;;;;;;;21.51;100.00;101297.81;4965132;28;20270;-52
2022/09/18 09:24:22;;;;;;;8.93;2.30;;;;;;;22.03;100.00;101314.56;4971208;28;20298;-55
2022/09/18 09:27:21;;;;;;;10.47;2.93;;;;;;;22.28;100.00;101313.94;4971377;28;20282;-55
2022/09/18 09:30:16;;;;;;;6.53;1.37;;;;;;;22.10;100.00;101312.44;4975858;28;20278;-54
2022/09/18 09:33:11;;;;;;;11.57;4.50;;;;;;;22.13;100.00;101311.09;4974601;28;20324;-57
2022/09/18 09:36:01;;;;;;;11.30;3.40;;;;;;;21.81;100.00;101323.66;4956901;28;20274;-56
2022/09/18 09:38:49;;;;;;;11.60;1.90;;;;;;;21.35;100.00;101322.13;4970995;28;20766;-58
2022/09/18 09:41:25;;;;;;;5.53;1.80;;;;;;;21.25;100.00;101318.47;4968392;28;20036;-53
2022/09/18 09:44:04;;;;;;;8.32;1.70;;;;;;;20.67;100.00;101316.97;4974174;28;20273;-52
2022/09/18 09:46:45;;;;;;;10.43;1.50;;;;;;;20.35;100.00;101309.47;4965347;28;20036;-55
2022/09/18 09:49:22;;;;;;;5.90;1.43;;;;;;;20.45;100.00;101303.38;4974232;28;20277;-56
2022/09/18 09:51:56;;;;;;;12.77;1.67;;;;;;;20.32;100.00;101301.84;4968995;28;20297;-55
2022/09/18 09:54:22;;;;;;;5.23;0.87;;;;;;;19.84;100.00;101304.06;4970199;28;20324;-55
2022/09/18 09:57:00;;;;;;;;;;;;;;;20.47;100.00;101296.59;4973030;28;20289;-53
2022/09/18 09:59:43;;;;;;;3.85;1.30;;;;;;;19.48;100.00;101301.56;4971063;28;19921;-55
2022/09/18 10:02:35;;;;;;;15.47;1.60;;;;;;;20.34;100.00;101297.78;4984089;28;20034;-53
2022/09/18 10:05:21;;;;;;;15.50;4.83;;;;;;;20.86;100.00;101303.91;4978390;28;20292;-51
2022/09/18 10:08:03;;;;;;;8.13;1.60;;;;;;;20.37;100.00;101306.50;4966917;28;20292;-52
2022/09/18 10:10:44;;;;;;;16.10;2.93;;;;;;;20.85;100.00;101321.28;4968317;28;20309;-54
2022/09/18 10:13:16;;;;;;;7.33;2.17;;;;;;;20.97;100.00;101323.88;4964586;28;20286;-52
2022/09/18 10:15:46;;;;;;;15.20;2.03;;;;;;;20.09;100.00;101319.97;4979849;28;20348;-54
2022/09/18 10:18:22;;;;;;;9.50;1.77;;;;;;;20.27;100.00;101305.28;4973724;28;20269;-50
2022/09/18 10:20:53;;;;;;;9.33;2.03;;;;;;;20.25;100.00;101309.31;4980597;28;20343;-55
2022/09/18 10:23:25;;;;;;;10.33;1.70;;;;;;;20.41;100.00;101313.06;4969569;28;20276;-54
2022/09/18 10:25:56;;;;;;;10.87;2.43;;;;;;;20.08;100.00;101315.63;4973772;28;20285;-56
2022/09/18 10:28:24;;;;;;;10.53;2.03;;;;;;;20.94;100.00;101308.09;4970405;28;20349;-54
2022/09/18 10:30:57;;;;;;;15.70;2.27;;;;;;;21.31;100.00;101318.28;4985471;28;20301;-57
2022/09/18 10:33:32;;;;;;;13.83;2.07;;;;;;;21.87;100.00;101316.38;4968163;28;20293;-54
2022/09/18 10:36:02;;;;;;;14.40;2.43;;;;;;;21.12;100.00;101320.53;4970517;28;20280;-55
2022/09/18 10:38:32;;;;;;;9.77;2.70;;;;;;;21.21;100.00;101323.59;4978601;28;20270;-54
2022/09/18 10:41:33;;;;;;;6.50;1.87;;;;;;;22.08;100.00;101303.72;4991094;28;20273;-56
2022/09/18 10:44:15;;;;;;;10.47;2.83;;;;;;;21.55;100.00;101303.53;4991023;28;20332;-56
2022/09/18 10:47:09;;;;;;;9.93;2.60;;;;;;;21.62;100.00;101302.25;4984654;28;20263;-56
2022/09/18 10:49:49;;;;;;;12.30;3.20;;;;;;;21.87;100.00;101305.47;4985204;28;20947;-59
2022/09/18 10:52:30;;;;;;;13.40;2.83;;;;;;;22.44;100.00;101309.41;4971339;28;20265;-56
2022/09/18 10:55:07;;;;;;;11.07;2.47;;;;;;;21.97;100.00;101307.47;4979227;28;20266;-53
2022/09/18 10:57:36;;;;;;;6.70;2.20;;;;;;;21.95;100.00;101301.47;4974926;28;20266;-57
2022/09/18 11:00:28;;;;;;;14.33;2.93;;;;;;;21.85;100.00;101307.66;4979381;28;20625;-55
2022/09/18 11:03:27;;;;;;;8.10;1.60;;;;;;;21.94;100.00;101313.44;4976339;28;20273;-55
2022/09/18 11:06:00;;;;;;;9.70;1.83;;;;;;;22.21;100.00;101310.59;4967463;28;20287;-55
2022/09/18 11:08:34;;;;;;;9.73;2.60;;;;;;;22.27;100.00;101314.19;4979279;28;20337;-54
2022/09/18 11:11:07;;;;;;;17.77;2.10;;;;;;;21.91;100.00;101306.59;4986374;28;20039;-55
2022/09/18 11:13:49;;;;;;;11.57;2.77;;;;;;;22.41;100.00;101323.53;4984889;28;20289;-54
2022/09/18 11:16:30;;;;;;;9.53;2.10;;;;;;;22.00;100.00;101309.66;4980443;28;20273;-56
2022/09/18 11:19:03;;;;;;;8.60;1.80;;;;;;;21.55;100.00;101314.41;4984450;28;20275;-55
2022/09/18 11:21:30;;;;;;;10.00;1.97;;;;;;;21.58;100.00;101313.94;4969265;28;20036;-53
2022/09/18 11:24:04;;;;;;;13.90;1.92;;;;;;;21.29;100.00;101311.44;4978721;28;20262;-58
2022/09/18 11:26:30;;;;;;;7.27;1.97;;;;;;;21.38;100.00;101309.09;4969824;28;20039;-54
2022/09/18 11:29:05;;;;;;;9.80;2.17;;;;;;;21.46;100.00;101316.81;4969152;28;20268;-57
2022/09/18 11:31:57;;;;;;;7.93;1.93;;;;;;;21.28;100.00;101320.69;4994659;28;20304;-55
2022/09/18 11:34:30;;;;;;;8.33;1.87;;;;;;;21.17;100.00;101311.59;4951124;28;20285;-58
2022/09/18 11:37:00;;;;;;;3.73;1.70;;;;;;;21.36;100.00;101301.19;4976022;28;20333;-55
2022/09/18 11:39:33;;;;;;;9.53;1.90;;;;;;;21.98;100.00;101298.22;4973089;28;20285;-55
2022/09/18 11:42:07;;;;;;;13.87;1.93;;;;;;;22.19;100.00;101301.88;4977679;28;20273;-57
2022/09/18 11:44:33;;;;;;;11.20;2.90;;;;;;;22.05;100.00;101299.63;4986372;28;20277;-57